createdAt,value
2022-11-12T00:02:23.229Z,10.53
2022-11-12T00:05:10.692Z,11.67
2022-11-12T00:07:58.361Z,10.57
2022-11-12T00:10:46.434Z,10.37
2022-11-12T00:13:33.700Z,9.20
2022-11-12T00:16:21.566Z,8.23
2022-11-12T00:19:09.331Z,9.40
2022-11-12T00:21:56.714Z,8.80
2022-11-12T00:24:44.427Z,8.83
2022-11-12T00:27:35.409Z,8.60
2022-11-12T00:30:23.091Z,7.87
2022-11-12T00:33:10.886Z,10.03
2022-11-12T00:36:00.673Z,12.43
2022-11-12T00:38:48.546Z,8.83
2022-11-12T00:41:36.475Z,11.27
2022-11-12T00:44:23.833Z,13.67
2022-11-12T00:47:11.564Z,9.73
2022-11-12T00:49:59.013Z,9.03
2022-11-12T00:52:46.754Z,10.13
2022-11-12T00:55:34.189Z,9.97
2022-11-12T00:58:21.471Z,11.13
2022-11-12T01:01:11.399Z,10.53
2022-11-12T01:03:59.552Z,9.83
2022-11-12T01:06:47.400Z,9.77
2022-11-12T01:09:34.650Z,10.13
2022-11-12T01:12:22.460Z,10.93
2022-11-12T01:15:10.024Z,10.80
2022-11-12T01:17:57.984Z,10.80
2022-11-12T01:20:45.270Z,11.30
2022-11-12T01:23:33.902Z,11.30
2022-11-12T01:26:23.225Z,10.83
2022-11-12T01:29:10.465Z,10.60
2022-11-12T01:31:58.353Z,9.77
2022-11-12T01:34:45.639Z,9.80
2022-11-12T01:37:33.392Z,10.70
2022-11-12T01:40:21.354Z,10.57
2022-11-12T01:43:14.796Z,10.87
2022-11-12T01:46:04.186Z,10.53
2022-11-12T01:48:56.479Z,9.63
2022-11-12T01:51:47.684Z,10.23
2022-11-12T01:54:35.256Z,9.70
2022-11-12T01:57:34.413Z,10.83
2022-11-12T02:00:22.617Z,10.00
2022-11-12T02:03:13.497Z,10.27
2022-11-12T02:06:07.330Z,9.57
2022-11-12T02:08:55.299Z,9.67
2022-11-12T02:11:43.032Z,9.77
2022-11-12T02:14:30.988Z,9.53
2022-11-12T02:17:18.745Z,9.53
2022-11-12T02:20:09.164Z,9.23
2022-11-12T02:22:56.494Z,8.80
2022-11-12T02:25:44.279Z,7.83
2022-11-12T02:28:34.430Z,9.43
2022-11-12T02:31:22.204Z,9.10
2022-11-12T02:34:10.017Z,9.30
2022-11-12T02:36:57.417Z,9.00
2022-11-12T02:39:45.176Z,8.77
2022-11-12T02:42:33.000Z,9.00
2022-11-12T02:45:20.978Z,8.40
2022-11-12T02:48:08.425Z,8.97
2022-11-12T02:50:55.689Z,9.13
2022-11-12T02:53:43.351Z,8.73
2022-11-12T02:56:31.265Z,8.90
2022-11-12T02:59:18.649Z,9.30
2022-11-12T03:02:06.373Z,8.67
2022-11-12T03:04:53.676Z,8.77
2022-11-12T03:07:41.424Z,9.03
2022-11-12T03:10:29.460Z,9.07
2022-11-12T03:13:16.903Z,8.43
2022-11-12T03:16:04.530Z,9.20
2022-11-12T03:18:52.409Z,9.17
2022-11-12T03:21:39.590Z,9.10
2022-11-12T03:24:28.616Z,9.20
2022-11-12T03:27:16.198Z,9.50
2022-11-12T03:30:04.452Z,9.73
2022-11-12T03:32:51.753Z,10.43
2022-11-12T03:35:39.825Z,10.40
2022-11-12T03:38:27.491Z,10.63
2022-11-12T03:41:15.591Z,9.73
2022-11-12T03:44:03.050Z,10.47
2022-11-12T03:46:50.274Z,9.97
2022-11-12T03:49:38.118Z,11.57
2022-11-12T03:52:25.356Z,10.63
2022-11-12T03:55:13.992Z,10.13
2022-11-12T03:58:01.913Z,11.43
2022-11-12T04:00:49.856Z,11.73
2022-11-12T04:03:37.254Z,11.20
2022-11-12T04:06:43.605Z,10.97
2022-11-12T04:09:31.521Z,9.97
2022-11-12T04:12:37.874Z,10.10
2022-11-12T04:15:25.292Z,10.80
2022-11-12T04:18:31.516Z,10.07
2022-11-12T04:21:38.036Z,8.67
2022-11-12T04:24:48.288Z,8.50
2022-11-12T04:27:36.353Z,8.63
2022-11-12T04:30:23.598Z,9.73
2022-11-12T04:33:11.482Z,8.70
2022-11-12T04:35:58.680Z,8.60
2022-11-12T04:38:46.478Z,8.23
2022-11-12T04:41:52.396Z,9.23
2022-11-12T04:44:58.795Z,8.67
2022-11-12T04:47:46.532Z,9.07
2022-11-12T04:50:34.714Z,9.60
2022-11-12T04:53:22.036Z,10.17
2022-11-12T04:56:09.433Z,8.53
2022-11-12T04:58:56.681Z,9.13
2022-11-12T05:01:44.570Z,8.40
2022-11-12T05:04:32.062Z,8.47
2022-11-12T05:07:20.007Z,8.30
2022-11-12T05:10:07.600Z,7.77
2022-11-12T05:12:55.513Z,7.17
2022-11-12T05:15:44.624Z,7.73
2022-11-12T05:18:32.363Z,7.40
2022-11-12T05:21:43.488Z,6.50
2022-11-12T05:24:41.443Z,6.60
2022-11-12T05:27:29.489Z,6.83
2022-11-12T05:30:17.272Z,7.40
2022-11-12T05:33:04.549Z,7.23
2022-11-12T05:35:52.015Z,6.40
2022-11-12T05:38:39.291Z,7.73
2022-11-12T05:41:27.562Z,6.93
2022-11-12T05:44:17.887Z,7.57
2022-11-12T05:47:05.762Z,7.17
2022-11-12T05:49:53.043Z,7.67
2022-11-12T05:52:40.840Z,7.53
2022-11-12T05:55:30.946Z,7.53
2022-11-12T05:58:20.991Z,7.03
2022-11-12T06:01:08.250Z,7.13
2022-11-12T06:03:55.927Z,6.40
2022-11-12T06:06:44.123Z,6.73
2022-11-12T06:09:31.559Z,6.57
2022-11-12T06:12:19.320Z,7.23
2022-11-12T06:15:06.765Z,6.50
2022-11-12T06:17:55.038Z,6.43
2022-11-12T06:20:42.922Z,6.47
2022-11-12T06:23:30.680Z,6.73
2022-11-12T06:26:18.148Z,6.67
2022-11-12T06:29:05.905Z,5.90
2022-11-12T06:31:53.596Z,6.00
2022-11-12T06:34:41.486Z,5.30
2022-11-12T06:37:29.240Z,5.13
2022-11-12T06:40:16.940Z,6.10
2022-11-12T06:43:04.243Z,5.47
2022-11-12T06:45:52.132Z,5.10
2022-11-12T06:48:39.647Z,5.37
2022-11-12T06:51:27.448Z,5.77
2022-11-12T06:54:14.888Z,5.43
2022-11-12T06:57:02.971Z,5.13
2022-11-12T06:59:50.528Z,4.93
2022-11-12T07:02:38.571Z,5.30
2022-11-12T07:05:25.888Z,5.00
2022-11-12T07:08:13.650Z,4.80
2022-11-12T07:11:01.237Z,4.90
2022-11-12T07:13:49.310Z,5.10
2022-11-12T07:16:37.014Z,5.03
2022-11-12T07:19:24.288Z,4.67
2022-11-12T07:22:11.763Z,5.10
2022-11-12T07:24:59.566Z,5.10
2022-11-12T07:27:47.255Z,4.87
2022-11-12T07:30:34.623Z,4.47
2022-11-12T07:33:22.344Z,5.00
2022-11-12T07:36:11.335Z,4.97
2022-11-12T07:38:59.140Z,4.67
2022-11-12T07:41:46.447Z,4.93
2022-11-12T07:44:34.226Z,4.80
2022-11-12T07:47:21.655Z,4.43
2022-11-12T07:50:09.924Z,4.67
2022-11-12T07:52:59.234Z,4.57
2022-11-12T07:55:54.371Z,4.87
2022-11-12T07:58:42.229Z,4.67
2022-11-12T08:01:30.172Z,5.07
2022-11-12T08:04:18.206Z,4.20
2022-11-12T08:07:06.203Z,3.80
2022-11-12T08:09:54.888Z,4.10
2022-11-12T08:12:43.015Z,4.00
2022-11-12T08:15:30.774Z,4.30
2022-11-12T08:18:18.848Z,4.63
2022-11-12T08:21:07.550Z,3.73
2022-11-12T08:23:55.330Z,4.20
2022-11-12T08:26:42.733Z,4.10
2022-11-12T08:29:30.399Z,4.20
2022-11-12T08:32:17.717Z,4.40
2022-11-12T08:35:05.864Z,4.27
2022-11-12T08:37:53.817Z,4.23
2022-11-12T08:40:41.464Z,3.90
2022-11-12T08:43:29.245Z,3.77
2022-11-12T08:46:16.979Z,4.20
2022-11-12T08:49:04.844Z,4.00
2022-11-12T08:51:52.184Z,4.20
2022-11-12T08:54:39.913Z,4.37
2022-11-12T08:57:27.112Z,3.87
2022-11-12T09:00:15.127Z,4.10
2022-11-12T09:03:06.133Z,4.37
2022-11-12T09:05:54.376Z,4.27
2022-11-12T09:08:50.937Z,4.30
2022-11-12T09:11:38.715Z,3.87
2022-11-12T09:14:27.577Z,4.47
2022-11-12T09:17:15.771Z,4.70
2022-11-12T09:20:03.177Z,4.40
2022-11-12T09:22:50.760Z,4.70
2022-11-12T09:25:38.604Z,4.57
2022-11-12T09:28:26.115Z,5.00
2022-11-12T09:31:13.756Z,4.57
2022-11-12T09:34:01.651Z,4.60
2022-11-12T09:36:49.417Z,5.37
2022-11-12T09:39:36.839Z,5.40
2022-11-12T09:42:24.430Z,4.83
2022-11-12T09:45:19.496Z,4.83
2022-11-12T09:48:10.066Z,5.07
2022-11-12T09:51:00.427Z,4.80
2022-11-12T09:53:58.654Z,4.97
2022-11-12T09:56:47.684Z,5.07
2022-11-12T09:59:36.451Z,5.23
2022-11-12T10:02:30.220Z,5.07
2022-11-12T10:05:17.882Z,5.00
2022-11-12T10:08:24.174Z,4.70
2022-11-12T10:11:15.072Z,5.30
2022-11-12T10:14:05.641Z,4.77
2022-11-12T10:17:02.698Z,5.07
2022-11-12T10:19:49.977Z,5.23
2022-11-12T10:22:56.076Z,4.63
2022-11-12T10:25:44.904Z,5.90
2022-11-12T10:28:39.660Z,5.00
2022-11-12T10:31:27.262Z,4.97
2022-11-12T10:34:15.240Z,5.23
2022-11-12T10:37:05.157Z,5.33
2022-11-12T10:39:52.911Z,5.23
2022-11-12T10:42:56.536Z,4.90
2022-11-12T10:45:44.796Z,5.73
2022-11-12T10:48:34.004Z,4.70
2022-11-12T10:51:30.456Z,5.37
2022-11-12T10:54:37.859Z,5.47
2022-11-12T10:57:26.776Z,5.30
2022-11-12T11:00:14.094Z,5.10
2022-11-12T11:03:03.658Z,5.30
2022-11-12T11:05:55.948Z,4.77
2022-11-12T11:08:43.823Z,5.25
2022-11-12T11:11:31.534Z,5.00
2022-11-12T11:14:35.510Z,5.00
2022-11-12T11:17:22.792Z,4.93
2022-11-12T11:20:22.882Z,5.13
2022-11-12T11:23:16.614Z,5.15
2022-11-12T11:26:22.961Z,5.60
2022-11-12T11:29:16.306Z,4.93
2022-11-12T11:32:11.007Z,4.85
2022-11-12T11:35:25.258Z,4.53
2022-11-12T11:38:16.259Z,5.53
2022-11-12T11:41:19.136Z,5.80
2022-11-12T11:44:19.326Z,5.63
2022-11-12T11:47:38.622Z,5.35
2022-11-12T11:50:37.625Z,6.20
2022-11-12T11:53:30.749Z,6.20
2022-11-12T11:56:18.016Z,5.35
2022-11-12T11:59:17.082Z,5.78
2022-11-12T12:02:34.363Z,6.65
2022-11-12T12:05:35.256Z,6.47
2022-11-12T12:08:23.016Z,5.90
2022-11-12T12:11:21.262Z,5.88
2022-11-12T12:14:12.108Z,7.23
2022-11-12T12:17:02.495Z,5.65
2022-11-12T12:20:06.292Z,7.65
2022-11-12T12:23:05.216Z,6.60
2022-11-12T12:25:58.915Z,7.60
2022-11-12T12:28:52.023Z,7.60
2022-11-12T12:31:46.075Z,7.97
2022-11-12T12:34:38.937Z,7.75
2022-11-12T12:37:42.631Z,7.85
2022-11-12T12:40:32.558Z,8.38
2022-11-12T12:43:38.680Z,8.80
2022-11-12T12:46:28.033Z,8.47
2022-11-12T12:49:22.909Z,9.77
2022-11-12T12:52:12.525Z,8.95
2022-11-12T12:55:00.588Z,8.57
2022-11-12T12:57:47.924Z,9.38
2022-11-12T13:00:37.661Z,9.40
2022-11-12T13:03:46.018Z,9.70
2022-11-12T13:06:35.303Z,9.18
2022-11-12T13:09:25.030Z,9.00
2022-11-12T13:12:12.335Z,8.88
2022-11-12T13:15:13.787Z,9.30
2022-11-12T13:18:01.528Z,8.80
2022-11-12T13:21:08.784Z,9.27
2022-11-12T13:24:06.511Z,9.33
2022-11-12T13:26:56.003Z,9.07
2022-11-12T13:29:44.819Z,9.80
2022-11-12T13:32:32.489Z,9.77
2022-11-12T13:35:23.358Z,9.37
2022-11-12T13:38:15.693Z,8.47
2022-11-12T13:41:12.177Z,9.40
2022-11-12T13:43:59.556Z,8.97
2022-11-12T13:46:47.118Z,8.83
2022-11-12T13:49:35.802Z,8.40
2022-11-12T13:52:23.841Z,8.50
2022-11-12T13:55:14.899Z,8.93
2022-11-12T13:58:02.685Z,8.40
2022-11-12T14:00:54.385Z,8.67
2022-11-12T14:03:46.761Z,8.97
2022-11-12T14:06:39.094Z,8.50
2022-11-12T14:09:26.975Z,9.50
2022-11-12T14:12:33.380Z,9.07
2022-11-12T14:15:23.903Z,9.10
2022-11-12T14:18:18.168Z,8.97
2022-11-12T14:21:14.470Z,8.27
2022-11-12T14:24:02.477Z,9.90
2022-11-12T14:26:49.959Z,9.33
2022-11-12T14:29:43.378Z,9.23
2022-11-12T14:32:36.790Z,9.67
2022-11-12T14:35:24.027Z,9.37
2022-11-12T14:38:18.173Z,8.40
2022-11-12T14:41:16.703Z,8.93
2022-11-12T14:44:24.317Z,8.90
2022-11-12T14:47:12.341Z,8.23
2022-11-12T14:49:59.988Z,8.33
2022-11-12T14:52:49.769Z,8.63
2022-11-12T14:55:38.528Z,8.53
2022-11-12T14:58:27.897Z,9.03
2022-11-12T15:02:14.457Z,9.03
2022-11-12T15:04:44.285Z,8.37
2022-11-12T15:07:36.495Z,8.87
2022-11-12T15:10:30.258Z,9.13
2022-11-12T15:13:22.231Z,8.23
2022-11-12T15:16:10.915Z,8.23
2022-11-12T15:19:04.775Z,8.20
2022-11-12T15:21:54.272Z,8.30
2022-11-12T15:24:44.322Z,8.73
2022-11-12T15:27:38.343Z,8.30
2022-11-12T15:30:28.589Z,8.57
2022-11-12T15:33:19.438Z,9.37
2022-11-12T15:36:13.897Z,8.93
2022-11-12T15:39:01.738Z,9.20
2022-11-12T15:41:49.260Z,9.03
2022-11-12T15:44:37.431Z,8.67
2022-11-12T15:47:24.796Z,9.13
2022-11-12T15:50:20.241Z,9.17
2022-11-12T15:53:07.636Z,9.23
2022-11-12T15:55:55.010Z,10.17
2022-11-12T15:58:42.398Z,10.03
2022-11-12T16:01:30.302Z,10.93
2022-11-12T16:04:17.787Z,10.77
2022-11-12T16:07:07.563Z,11.47
2022-11-12T16:09:55.115Z,12.07
2022-11-12T16:12:42.753Z,13.07
2022-11-12T16:15:31.190Z,13.13
2022-11-12T16:18:18.682Z,13.13
2022-11-12T16:21:06.001Z,13.07
2022-11-12T16:23:53.410Z,14.20
2022-11-12T16:26:41.581Z,12.77
2022-11-12T16:29:28.827Z,13.20
2022-11-12T16:32:16.613Z,12.00
2022-11-12T16:35:04.344Z,13.17
2022-11-12T16:37:53.605Z,12.43
2022-11-12T16:40:41.718Z,13.13
2022-11-12T16:43:29.844Z,11.63
2022-11-12T16:46:24.691Z,11.63
2022-11-12T16:49:13.771Z,11.60
2022-11-12T16:52:01.613Z,11.50
2022-11-12T16:54:49.460Z,11.80
2022-11-12T16:57:36.917Z,10.80
2022-11-12T17:00:24.747Z,11.57
2022-11-12T17:03:14.333Z,10.97
2022-11-12T17:06:03.575Z,11.60
2022-11-12T17:08:54.732Z,11.67
2022-11-12T17:11:42.582Z,11.73
2022-11-12T17:14:30.391Z,10.80
2022-11-12T17:17:18.113Z,11.60
2022-11-12T17:20:06.143Z,11.40
2022-11-12T17:22:53.906Z,10.73
2022-11-12T17:25:41.161Z,11.90
2022-11-12T17:28:30.191Z,11.50
2022-11-12T17:31:19.750Z,10.70
2022-11-12T17:34:07.150Z,11.20
2022-11-12T17:36:55.072Z,11.13
2022-11-12T17:39:42.459Z,11.37
2022-11-12T17:42:30.127Z,12.40
2022-11-12T17:45:17.974Z,12.27
2022-11-12T17:48:05.807Z,11.20
2022-11-12T17:51:03.780Z,11.17
2022-11-12T17:53:51.370Z,12.67
2022-11-12T17:56:39.181Z,11.57
2022-11-12T17:59:26.474Z,12.57
2022-11-12T18:02:14.329Z,12.23
2022-11-12T18:05:01.649Z,11.27
2022-11-12T18:07:49.454Z,11.40
2022-11-12T18:10:36.958Z,12.30
2022-11-12T18:13:24.195Z,9.97
2022-11-12T18:16:29.826Z,11.23
2022-11-12T18:19:17.599Z,12.13
2022-11-12T18:22:05.512Z,11.03
2022-11-12T18:24:52.998Z,11.40
2022-11-12T18:27:40.364Z,12.27
2022-11-12T18:30:28.130Z,12.40
2022-11-12T18:33:15.417Z,12.43
2022-11-12T18:36:08.081Z,10.87
2022-11-12T18:38:56.137Z,10.63
2022-11-12T18:41:43.490Z,11.00
2022-11-12T18:44:30.776Z,10.27
2022-11-12T18:47:18.180Z,12.07
2022-11-12T18:50:08.832Z,11.23
2022-11-12T18:52:56.655Z,10.67
2022-11-12T18:55:44.068Z,10.47
2022-11-12T18:58:35.181Z,10.90
2022-11-12T19:01:24.231Z,11.43
2022-11-12T19:04:12.094Z,11.43
2022-11-12T19:06:59.445Z,10.67
2022-11-12T19:09:46.786Z,11.97
2022-11-12T19:12:34.212Z,11.40
2022-11-12T19:15:26.541Z,11.27
2022-11-12T19:18:14.745Z,10.40
2022-11-12T19:21:05.957Z,10.60
2022-11-12T19:23:54.716Z,11.77
2022-11-12T19:26:42.446Z,12.00
2022-11-12T19:29:30.797Z,11.97
2022-11-12T19:32:18.644Z,11.43
2022-11-12T19:35:07.716Z,11.13
2022-11-12T19:37:55.852Z,12.37
2022-11-12T19:40:43.487Z,11.53
2022-11-12T19:43:31.266Z,11.77
2022-11-12T19:46:18.654Z,12.47
2022-11-12T19:49:05.994Z,13.17
2022-11-12T19:51:53.325Z,14.17
2022-11-12T19:54:40.700Z,13.07
2022-11-12T19:57:29.055Z,11.47
2022-11-12T20:00:17.066Z,13.10
2022-11-12T20:03:04.452Z,12.93
2022-11-12T20:05:52.539Z,12.67
2022-11-12T20:08:40.245Z,13.07
2022-11-12T20:11:27.659Z,12.30
2022-11-12T20:14:15.825Z,13.27
2022-11-12T20:17:03.266Z,14.17
2022-11-12T20:19:50.813Z,14.20
2022-11-12T20:22:38.590Z,13.20
2022-11-12T20:25:25.777Z,12.53
2022-11-12T20:28:13.622Z,13.17
2022-11-12T20:31:21.780Z,12.73
2022-11-12T20:34:09.108Z,13.20
2022-11-12T20:36:56.905Z,11.73
2022-11-12T20:39:44.651Z,11.90
2022-11-12T20:42:32.083Z,12.33
2022-11-12T20:45:19.401Z,12.20
2022-11-12T20:48:08.210Z,12.13
2022-11-12T20:51:23.334Z,12.50
2022-11-12T20:54:12.687Z,13.80
2022-11-12T20:57:02.920Z,13.50
2022-11-12T20:59:51.563Z,13.57
2022-11-12T21:02:39.523Z,13.47
2022-11-12T21:05:26.955Z,14.03
2022-11-12T21:08:14.209Z,13.07
2022-11-12T21:11:03.444Z,13.80
2022-11-12T21:13:50.714Z,12.20
2022-11-12T21:16:39.560Z,12.37
2022-11-12T21:19:26.994Z,14.47
2022-11-12T21:22:15.993Z,13.93
2022-11-12T21:25:03.339Z,14.03
2022-11-12T21:27:51.236Z,14.10
2022-11-12T21:30:38.840Z,13.93
2022-11-12T21:33:26.233Z,12.93
2022-11-12T21:36:16.548Z,12.33
2022-11-12T21:39:04.966Z,11.97
2022-11-12T21:41:53.993Z,12.23
2022-11-12T21:44:41.738Z,13.57
2022-11-12T21:47:29.093Z,13.27
2022-11-12T21:50:18.453Z,12.87
2022-11-12T21:53:06.303Z,12.03
2022-11-12T21:55:53.576Z,13.30
2022-11-12T21:58:41.557Z,14.03
2022-11-12T22:01:29.860Z,12.97
2022-11-12T22:04:18.553Z,13.83
2022-11-12T22:07:06.812Z,12.27
2022-11-12T22:09:57.050Z,12.53
2022-11-12T22:13:04.980Z,13.13
2022-11-12T22:15:53.213Z,14.37
2022-11-12T22:18:40.831Z,12.97
2022-11-12T22:21:32.117Z,12.23
2022-11-12T22:24:23.263Z,12.40
2022-11-12T22:27:10.615Z,11.70
2022-11-12T22:29:58.123Z,11.87
2022-11-12T22:32:45.778Z,13.03
2022-11-12T22:35:34.353Z,11.33
2022-11-12T22:38:21.756Z,12.07
2022-11-12T22:41:10.894Z,11.57
2022-11-12T22:44:02.789Z,11.70
2022-11-12T22:46:50.273Z,12.33
2022-11-12T22:49:37.804Z,11.50
2022-11-12T22:52:27.024Z,12.70
2022-11-12T22:55:14.388Z,12.03
2022-11-12T22:58:02.216Z,13.23
2022-11-12T23:00:49.566Z,11.30
2022-11-12T23:03:37.937Z,12.93
2022-11-12T23:06:26.039Z,12.00
2022-11-12T23:09:17.789Z,12.07
2022-11-12T23:12:08.627Z,12.60
2022-11-12T23:14:56.430Z,12.83
2022-11-12T23:17:44.307Z,11.33
2022-11-12T23:20:31.879Z,11.97
2022-11-12T23:23:19.363Z,11.70
2022-11-12T23:26:09.168Z,12.53
2022-11-12T23:28:57.016Z,11.83
2022-11-12T23:31:44.860Z,12.17
2022-11-12T23:34:32.251Z,12.47
2022-11-12T23:37:19.661Z,11.87
2022-11-12T23:40:07.340Z,12.20
2022-11-12T23:42:55.519Z,11.97
2022-11-12T23:45:43.461Z,12.60
2022-11-12T23:48:31.606Z,12.97
2022-11-12T23:51:20.545Z,12.47
2022-11-12T23:54:08.340Z,12.93
2022-11-12T23:56:55.841Z,12.53
2022-11-12T23:59:43.635Z,12.80
